Terminal Aerodrome Forecast
Issued by NWS Missoula, MT

Home | Current Version | Previous Version | Text Only | Print | Product List | Glossary On
Versions: 1 2 3 4 5 6 7 8 9 10 11 12 13 14 15
000
FTUS45 KMSO 142320
TAFBTM
TAF
KBTM 142320Z 1500/1524 32005KT P6SM FEW010 SCT150
     FM150600 VRB03KT P6SM BKN020
     FM151500 16005KT P6SM FEW020 SCT100=

USA.gov is the U.S. government's official web portal to all federal, state and local government web resources and services.